Terminal Aerodrome Forecast
Issued by NWS

Home | Current Version | Previous Version | Text Only | Print | Product List | Glossary On
Versions: 1 2 3 4 5 6 7 8 9 10 11 12 13 14 15 16 17 18 19 20 21 22 23 24 25
794
FTUS41 KBUF 082324
TAFJHW
TAF
KJHW 082324Z 0900/0924 15007KT P6SM BKN040
     FM090200 15009KT 6SM -SN BR OVC035
     FM090700 18007KT 5SM -SN BR OVC012
     FM091300 20008KT P6SM OVC012
     FM092100 23008KT P6SM OVC020
      AMD LTD TO CLD VIS AND WIND=

USA.gov is the U.S. government's official web portal to all federal, state and local government web resources and services.